Time;durP1;ratioP1;P1;durP2;ratioP2;P2;SDS_P1;SDS_P2;PMS_P1;PMS_P2;Temp;Humidity;BMP_temperature;BMP_pressure;BME280_temperature;BME280_humidity;BME280_pressure;Samples;Min_cycle;Max_cycle;Signal;HPM_P1;HPM_P2
2022/02/06 00:02:24;;;;;;;;;;;;;;;10.14;76.98;99822.91;7364697;19;19922;-61
2022/02/06 00:04:50;;;;;;;;;;;;;;;10.17;77.28;99821.09;7362132;19;19982;-62
2022/02/06 00:07:15;;;;;;;;;;;;;;;10.16;76.95;99815.03;7362363;19;19918;-62
2022/02/06 00:09:42;;;;;;;;;;;;;;;10.14;76.77;99822.91;7362898;19;19933;-63
2022/02/06 00:12:12;;;;;;;;;;;;;;;10.07;77.25;99820.56;5945487;19;10000575;-62
2022/02/06 00:14:38;;;;;;;;;;;;;;;10.09;76.85;99824.84;2737099;19;10001939;-62
2022/02/06 00:17:04;;;;;;;;;;;;;;;10.06;77.06;99824.94;7363966;19;19954;-61
2022/02/06 00:19:29;;;;;;;;;;;;;;;10.02;77.03;99823.31;7359444;19;20700;-61
2022/02/06 00:21:55;;;;;;;;;;;;;;;9.98;77.08;99831.31;7360667;19;19923;-61
2022/02/06 00:24:29;;;;;;;;;;;;;;;9.94;77.41;99835.81;7361574;19;19926;-61
2022/02/06 00:27:04;;;;;;;;;;;;;;;9.91;77.40;99820.25;7360591;19;20287;-62
2022/02/06 00:29:49;;;;;;;;;;;;;;;9.88;77.58;99839.47;7360552;19;19923;-60
2022/02/06 00:32:28;;;;;;;;;;;;;;;9.85;77.64;99823.06;7363912;19;19914;-61
2022/02/06 00:35:20;;;;;;;;;;;;;;;9.80;77.71;99832.78;7355995;19;19919;-62
2022/02/06 00:40:33;;;;;;;;;;;;;;;9.70;77.58;99820.97;7358139;19;20026;-61
2022/02/06 00:42:59;;;;;;;;;;;;;;;9.64;77.39;99821.19;7358390;19;19915;-63
2022/02/06 00:45:24;;;;;;;;;;;;;;;9.57;77.54;99805.72;7354187;19;19922;-61
2022/02/06 00:47:49;;;;;;;;;;;;;;;9.51;77.61;99826.78;7363939;19;19926;-61
2022/02/06 00:50:14;;;;;;;;;;;;;;;9.45;77.64;99821.75;7370410;19;19913;-60
2022/02/06 00:52:49;;;;;;;;;;;;;;;9.40;77.55;99796.75;7371883;19;20447;-61
2022/02/06 00:55:15;;;;;;;;;;;;;;;9.35;77.50;99807.31;7364169;19;19930;-62
2022/02/06 00:57:40;;;;;;;;;;;;;;;9.29;77.82;99807.53;7361940;19;20637;-61
2022/02/06 01:00:06;;;;;;;;;;;;;;;9.25;77.89;99783.31;7356656;19;19919;-61
2022/02/06 01:02:31;;;;;;;;;;;;;;;9.22;78.26;99782.56;7363449;19;20741;-61
2022/02/06 01:04:56;;;;;;;;;;;;;;;9.19;78.25;99793.09;7352853;19;19930;-60
2022/02/06 01:07:21;;;;;;;;;;;;;;;9.14;77.99;99784.56;7361824;19;19915;-61
2022/02/06 01:09:47;;;;;;;;;;;;;;;9.13;78.42;99782.88;7359609;19;19935;-62
2022/02/06 01:12:18;;;;;;;;;;;;;;;9.09;78.38;99788.16;7365030;19;21258;-61
2022/02/06 01:15:07;;;;;;;;;;;;;;;9.06;78.25;99783.03;7358032;19;19919;-61
2022/02/06 01:17:38;;;;;;;;;;;;;;;9.05;78.37;99773.53;7355535;19;20405;-61
2022/02/06 01:20:19;;;;;;;;;;;;;;;9.03;78.28;99766.69;7363856;19;19923;-60
2022/02/06 01:23:06;;;;;;;;;;;;;;;9.01;78.41;99751.09;7363789;19;20489;-60
2022/02/06 01:25:38;;;;;;;;;;;;;;;8.95;78.58;99733.06;7358644;19;19934;-62
2022/02/06 01:28:08;;;;;;;;;;;;;;;9.00;79.06;99736.38;7363585;19;19942;-61
2022/02/06 01:33:14;;;;;;;;;;;;;;;8.99;79.02;99726.00;7359255;19;19922;-61
2022/02/06 01:41:02;;;;;;;;;;;;;;;8.99;79.33;99699.97;7370653;19;19945;-60
2022/02/06 01:43:46;;;;;;;;;;;;;;;9.00;79.20;99693.84;7360512;19;19943;-61
2022/02/06 01:57:27;;;;;;;;;;;;;;;9.05;79.33;99640.72;7354094;19;19929;-60
2022/02/06 02:21:07;;;;;;;;;;;;;;;9.27;80.11;99634.78;7360071;19;19943;-61
2022/02/06 02:23:58;;;;;;;;;;;;;;;9.30;79.89;99645.09;7361203;19;19923;-59
2022/02/06 02:29:28;;;;;;;;;;;;;;;9.33;80.31;99639.78;7363730;19;20316;-60
2022/02/06 02:45:21;;;;;;;;;;;;;;;9.46;79.85;99630.63;7359110;19;20405;-59
2022/02/06 02:47:52;;;;;;;;;;;;;;;9.48;80.34;99636.66;7347270;19;19915;-61
2022/02/06 02:50:23;;;;;;;;;;;;;;;9.51;80.15;99638.28;7354630;19;19907;-59
2022/02/06 02:57:51;;;;;;;;;;;;;;;9.50;79.80;99641.81;7348417;19;19927;-59
2022/02/06 03:02:52;;;;;;;;;;;;;;;9.51;79.46;99659.97;7362799;19;19939;-61
2022/02/06 03:05:17;;;;;;;;;;;;;;;9.50;79.57;99637.44;7357587;19;20329;-60
2022/02/06 03:07:43;;;;;;;;;;;;;;;9.49;79.51;99635.75;7352173;19;19949;-60
2022/02/06 03:10:09;;;;;;;;;;;;;;;9.49;79.38;99650.53;7360484;19;19931;-60
2022/02/06 03:12:35;;;;;;;;;;;;;;;9.46;79.45;99659.28;7363901;19;19922;-61
2022/02/06 03:15:19;;;;;;;;;;;;;;;9.45;79.27;99660.19;7355043;19;20459;-61
2022/02/06 03:17:56;;;;;;;;;;;;;;;9.43;79.60;99666.34;7361053;19;19922;-61
2022/02/06 03:20:21;;;;;;;;;;;;;;;9.40;79.39;99672.53;7362358;19;20568;-60
2022/02/06 03:22:50;;;;;;;;;;;;;;;9.38;79.34;99666.53;7365343;19;19945;-59
2022/02/06 03:25:19;;;;;;;;;;;;;;;9.35;79.41;99659.66;7363889;19;19914;-60
2022/02/06 03:27:45;;;;;;;;;;;;;;;9.34;79.46;99662.34;7365635;19;19919;-59
2022/02/06 03:30:11;;;;;;;;;;;;;;;9.32;79.35;99654.53;7365423;19;19934;-60
2022/02/06 03:32:36;;;;;;;;;;;;;;;9.32;79.38;99649.34;7369314;19;19922;-60
2022/02/06 03:35:02;;;;;;;;;;;;;;;9.30;79.26;99652.91;7372415;19;19919;-60
2022/02/06 03:37:27;;;;;;;;;;;;;;;9.28;79.51;99652.97;7363143;19;19922;-59
2022/02/06 03:39:54;;;;;;;;;;;;;;;9.27;79.44;99659.06;7369511;19;20328;-61
2022/02/06 03:42:22;;;;;;;;;;;;;;;9.25;79.32;99658.28;7363511;19;19926;-60
2022/02/06 03:44:51;;;;;;;;;;;;;;;9.24;79.16;99655.75;7369518;19;19990;-60
2022/02/06 03:47:22;;;;;;;;;;;;;;;9.22;79.37;99658.38;7364112;19;19919;-61
2022/02/06 03:52:24;;;;;;;;;;;;;;;9.19;79.32;99673.28;7363897;19;19919;-60
2022/02/06 03:55:02;;;;;;;;;;;;;;;9.14;79.28;99664.75;5725666;19;10000341;-59
2022/02/06 03:57:28;;;;;;;;;;;;;;;9.18;79.01;99682.00;3148069;19;10001985;-59
2022/02/06 03:59:53;;;;;;;;;;;;;;;9.17;79.39;99680.28;7367633;19;19929;-61
2022/02/06 04:02:19;;;;;;;;;;;;;;;9.17;79.09;99672.44;7367416;19;20348;-60
2022/02/06 04:04:45;;;;;;;;;;;;;;;9.15;79.29;99682.09;7351005;19;19931;-60
2022/02/06 04:07:13;;;;;;;;;;;;;;;9.15;79.26;99666.47;7366986;19;19918;-60
2022/02/06 04:09:52;;;;;;;;;;;;;;;9.14;79.24;99676.03;7361465;19;19994;-60
2022/02/06 04:12:19;;;;;;;;;;;;;;;9.14;78.98;99675.19;7368117;19;19975;-60
2022/02/06 04:15:00;;;;;;;;;;;;;;;9.14;79.42;99664.75;7364403;19;19929;-62
2022/02/06 04:17:27;;;;;;;;;;;;;;;9.13;79.32;99657.84;7371329;19;19933;-61
2022/02/06 04:19:53;;;;;;;;;;;;;;;9.14;78.95;99664.75;7354475;19;20529;-60
2022/02/06 04:22:19;;;;;;;;;;;;;;;9.12;79.15;99658.72;7355093;19;19922;-60
2022/02/06 04:24:44;;;;;;;;;;;;;;;9.13;78.79;99647.44;7367923;19;19929;-60
2022/02/06 04:27:09;;;;;;;;;;;;;;;9.12;79.02;99650.91;7368242;19;20278;-60
2022/02/06 04:29:34;;;;;;;;;;;;;;;9.10;79.14;99644.00;7364765;19;20305;-60
2022/02/06 04:32:02;;;;;;;;;;;;;;;9.10;78.75;99635.34;7359832;19;19923;-61
2022/02/06 04:34:28;;;;;;;;;;;;;;;9.10;79.29;99637.97;7353941;19;19944;-60
2022/02/06 05:22:06;;;;;;;;;;;;;;;8.70;78.49;99633.22;7371032;19;20573;-60
2022/02/06 05:30:16;;;;;;;;;;;;;;;8.64;78.57;99643.81;7354050;19;19935;-61
2022/02/06 05:33:15;;;;;;;;;;;;;;;8.61;78.00;99664.72;7368295;19;20313;-62
2022/02/06 05:35:38;;;;;;;;;;;;;;;8.57;78.21;99675.25;7267158;19;2004563;-60
2022/02/06 05:38:03;;;;;;;;;;;;;;;8.53;77.86;99678.00;7359854;19;20337;-60
2022/02/06 05:40:28;;;;;;;;;;;;;;;8.49;77.75;99676.38;7359524;19;19915;-62
2022/02/06 05:42:54;;;;;;;;;;;;;;;8.45;78.13;99664.34;7368175;19;19915;-60
2022/02/06 05:45:20;;;;;;;;;;;;;;;8.41;78.07;99662.72;7364551;19;20453;-62
2022/02/06 05:47:45;;;;;;;;;;;;;;;8.37;78.19;99671.56;7359448;19;19911;-61
2022/02/06 05:50:11;;;;;;;;;;;;;;;8.33;77.61;99670.75;7364039;19;19930;-60
2022/02/06 05:52:38;;;;;;;;;;;;;;;8.28;78.03;99672.63;7367120;19;19918;-60
2022/02/06 05:55:03;;;;;;;;;;;;;;;8.23;78.03;99684.94;7358939;19;21357;-60
2022/02/06 05:57:28;;;;;;;;;;;;;;;8.18;77.77;99685.06;7365154;19;19915;-62
2022/02/06 05:59:54;;;;;;;;;;;;;;;8.15;77.87;99687.72;7351867;19;19911;-61
2022/02/06 06:02:19;;;;;;;;;;;;;;;8.11;78.02;99685.25;7365504;19;19911;-62
2022/02/06 06:04:44;;;;;;;;;;;;;;;8.09;78.00;99681.88;7360244;19;19934;-60
2022/02/06 06:07:10;;;;;;;;;;;;;;;8.05;78.06;99687.16;7368368;19;20713;-61
2022/02/06 06:09:35;;;;;;;;;;;;;;;8.01;78.21;99675.16;7348653;19;19923;-62
2022/02/06 06:12:00;;;;;;;;;;;;;;;8.00;77.94;99682.97;7359623;19;19914;-61
2022/02/06 06:14:28;;;;;;;;;;;;;;;7.98;78.24;99680.44;7362007;19;19918;-62
2022/02/06 06:16:56;;;;;;;;;;;;;;;7.96;78.12;99684.84;7361098;19;19943;-61
2022/02/06 06:19:22;;;;;;;;;;;;;;;7.95;78.21;99685.69;7363241;19;19942;-60
2022/02/06 06:21:53;;;;;;;;;;;;;;;7.94;78.42;99678.81;7365991;19;20451;-60
2022/02/06 06:24:21;;;;;;;;;;;;;;;7.95;78.42;99666.66;7367303;19;19918;-61
2022/02/06 06:26:46;;;;;;;;;;;;;;;7.95;78.11;99672.72;7374121;19;20465;-61
2022/02/06 06:29:11;;;;;;;;;;;;;;;7.94;78.02;99671.00;7367501;19;19919;-61
2022/02/06 06:31:36;;;;;;;;;;;;;;;7.94;78.24;99680.56;7362651;19;20491;-60
2022/02/06 06:34:02;;;;;;;;;;;;;;;7.94;77.98;99668.41;7362373;19;19954;-61
2022/02/06 06:36:30;;;;;;;;;;;;;;;7.94;77.89;99681.41;7364115;19;19926;-61
2022/02/06 06:38:55;;;;;;;;;;;;;;;7.93;78.23;99682.31;7351715;19;19957;-61
2022/02/06 06:41:21;;;;;;;;;;;;;;;7.95;78.14;99690.06;7282180;19;19978;-60
2022/02/06 06:43:46;;;;;;;;;;;;;;;7.94;77.61;99698.75;1147043;19;10001895;-59
2022/02/06 06:46:12;;;;;;;;;;;;;;;7.94;77.96;99684.00;7357506;19;19923;-61
2022/02/06 06:48:38;;;;;;;;;;;;;;;7.94;77.73;99683.16;7365057;19;19926;-60
2022/02/06 06:51:03;;;;;;;;;;;;;;;7.94;77.78;99691.81;7355694;19;19919;-60
2022/02/06 06:53:29;;;;;;;;;;;;;;;7.95;77.75;99690.91;7360888;19;19955;-60
2022/02/06 06:56:00;;;;;;;;;;;;;;;7.95;77.47;99685.69;7356731;19;19919;-62
2022/02/06 06:58:28;;;;;;;;;;;;;;;7.95;77.20;99696.09;7365471;19;19939;-61
2022/02/06 07:03:43;;;;;;;;;;;;;;;7.95;77.60;99721.25;7363614;19;20345;-61
2022/02/06 07:06:08;;;;;;;;;;;;;;;7.95;77.26;99706.50;7360056;19;19914;-60
2022/02/06 07:08:33;;;;;;;;;;;;;;;7.95;77.50;99701.31;7360784;19;23023;-59
2022/02/06 07:10:58;;;;;;;;;;;;;;;7.95;77.32;99690.06;7367125;19;19979;-60
2022/02/06 07:13:24;;;;;;;;;;;;;;;7.95;77.22;99679.66;7368247;19;19927;-62
2022/02/06 07:15:50;;;;;;;;;;;;;;;7.96;77.58;99676.19;7366889;19;19923;-61
2022/02/06 07:18:15;;;;;;;;;;;;;;;7.95;77.68;99669.25;7367282;19;19975;-61
2022/02/06 07:20:41;;;;;;;;;;;;;;;7.95;77.43;99684.84;7364046;19;19919;-59
2022/02/06 07:23:08;;;;;;;;;;;;;;;7.96;77.54;99681.38;7350764;19;19931;-61
2022/02/06 07:25:35;;;;;;;;;;;;;;;7.96;77.22;99703.03;7364493;19;19918;-61
2022/02/06 07:28:00;;;;;;;;;;;;;;;7.96;77.51;99700.44;7352588;19;21982;-60
2022/02/06 07:30:26;;;;;;;;;;;;;;;7.97;77.54;99704.72;7358946;19;19986;-61
2022/02/06 07:32:52;;;;;;;;;;;;;;;7.97;77.38;99709.06;7362158;19;19930;-62
2022/02/06 07:35:17;;;;;;;;;;;;;;;7.96;77.48;99716.03;7361993;19;20615;-61
2022/02/06 07:37:56;;;;;;;;;;;;;;;7.97;77.33;99717.72;7361215;19;19915;-60
2022/02/06 07:40:22;;;;;;;;;;;;;;;7.97;77.20;99720.31;7357605;19;19923;-60
2022/02/06 07:42:48;;;;;;;;;;;;;;;7.97;76.86;99725.53;7360207;19;20377;-59
2022/02/06 07:45:14;;;;;;;;;;;;;;;7.97;77.18;99727.28;7358491;19;19919;-60
2022/02/06 07:47:42;;;;;;;;;;;;;;;7.97;76.83;99727.28;7359126;19;20332;-62
2022/02/06 07:50:08;;;;;;;;;;;;;;;7.96;76.85;99744.63;7357994;19;20483;-61
2022/02/06 07:52:34;;;;;;;;;;;;;;;7.96;77.35;99742.03;7348227;19;19923;-62
2022/02/06 07:55:00;;;;;;;;;;;;;;;7.96;77.26;99749.81;7353425;19;20076;-61
2022/02/06 07:57:26;;;;;;;;;;;;;;;7.98;77.02;99757.56;7363144;19;19960;-61
2022/02/06 07:59:51;;;;;;;;;;;;;;;7.99;77.00;99760.13;7362683;19;19922;-60
2022/02/06 08:02:17;;;;;;;;;;;;;;;7.99;77.30;99748.88;7360035;19;19943;-60
2022/02/06 08:04:45;;;;;;;;;;;;;;;8.00;76.96;99754.03;7365465;19;20331;-60
2022/02/06 08:07:11;;;;;;;;;;;;;;;8.01;77.09;99762.69;7375399;19;19922;-60
2022/02/06 08:12:05;;;;;;;;;;;;;;;8.00;77.15;99782.63;7362761;19;19935;-62
2022/02/06 08:14:50;;;;;;;;;;;;;;;8.00;76.83;99795.63;7367395;19;19922;-61
2022/02/06 08:17:15;;;;;;;;;;;;;;;7.99;77.20;99788.72;7359756;19;19919;-61
2022/02/06 08:19:40;;;;;;;;;;;;;;;7.99;76.82;99774.88;7355226;19;19918;-62
2022/02/06 08:22:06;;;;;;;;;;;;;;;7.99;77.12;99780.91;7362372;19;19946;-62
2022/02/06 08:24:31;;;;;;;;;;;;;;;7.97;76.84;99759.31;7359476;19;19915;-61
2022/02/06 08:26:56;;;;;;;;;;;;;;;7.95;76.72;99755.91;7362939;19;19940;-61
2022/02/06 08:29:22;;;;;;;;;;;;;;;7.93;76.85;99759.44;7355961;19;19967;-62
2022/02/06 08:31:47;;;;;;;;;;;;;;;7.90;76.74;99788.97;7365364;19;19931;-62
2022/02/06 08:34:12;;;;;;;;;;;;;;;7.87;76.71;99781.25;7362421;19;19919;-61
2022/02/06 08:36:37;;;;;;;;;;;;;;;7.83;76.90;99784.81;7360612;19;19919;-61
2022/02/06 08:39:03;;;;;;;;;;;;;;;7.80;76.96;99790.09;7363001;19;19925;-61
2022/02/06 08:41:28;;;;;;;;;;;;;;;7.77;76.81;99808.38;7366910;19;19926;-62
2022/02/06 08:43:53;;;;;;;;;;;;;;;7.74;76.88;99811.91;7346121;19;20012;-61
2022/02/06 08:46:19;;;;;;;;;;;;;;;7.73;76.82;99798.94;7360263;19;19922;-62
2022/02/06 08:48:44;;;;;;;;;;;;;;;7.68;77.24;99798.22;7361299;19;19930;-61
2022/02/06 08:51:09;;;;;;;;;;;;;;;7.68;77.03;99790.41;7355127;19;19942;-62
2022/02/06 08:53:35;;;;;;;;;;;;;;;7.67;77.20;99799.97;7363593;19;19937;-60
2022/02/06 08:56:00;;;;;;;;;;;;;;;7.66;77.18;99800.00;7362043;19;20291;-62
2022/02/06 08:58:35;;;;;;;;;;;;;;;7.61;77.30;99786.28;1507164;19;10021299;-61
2022/02/06 09:01:01;;;;;;;;;;;;;;;7.66;77.35;99805.22;7366883;19;19923;-62
2022/02/06 09:03:26;;;;;;;;;;;;;;;7.67;77.73;99783.53;7371281;19;19971;-61
2022/02/06 09:05:51;;;;;;;;;;;;;;;7.59;77.28;99767.25;7355367;19;19955;-62
2022/02/06 09:08:16;;;;;;;;;;;;;;;7.68;77.63;99788.66;7349298;19;19914;-61
2022/02/06 09:10:42;;;;;;;;;;;;;;;7.70;77.67;99801.63;7362129;19;19936;-61
2022/02/06 09:13:08;;;;;;;;;;;;;;;7.72;77.46;99799.84;7356256;19;19917;-62
2022/02/06 09:15:33;;;;;;;;;;;;;;;7.75;77.77;99815.34;7352898;19;19922;-60
2022/02/06 09:17:58;;;;;;;;;;;;;;;7.77;77.85;99788.44;7361552;19;19919;-61
2022/02/06 09:20:24;;;;;;;;;;;;;;;7.80;77.38;99790.09;7358449;19;19925;-62
2022/02/06 09:22:49;;;;;;;;;;;;;;;7.83;77.35;99789.16;7362862;19;19925;-61
2022/02/06 09:25:15;;;;;;;;;;;;;;;7.86;77.75;99802.94;7356300;19;19915;-60
2022/02/06 09:27:41;;;;;;;;;;;;;;;7.90;77.31;99814.09;7360568;19;19953;-62
2022/02/06 09:30:08;;;;;;;;;;;;;;;7.93;77.73;99807.09;7361276;19;19926;-60
2022/02/06 09:37:25;;;;;;;;;;;;;;;8.06;77.65;99808.47;7359351;19;19923;-63
2022/02/06 09:39:51;;;;;;;;;;;;;;;8.11;77.66;99810.06;7362331;19;19940;-61
2022/02/06 09:42:18;;;;;;;;;;;;;;;8.16;77.36;99809.09;7362476;19;19947;-62
2022/02/06 09:44:47;;;;;;;;;;;;;;;8.21;77.16;99824.53;7354800;19;20237;-61
2022/02/06 09:47:12;;;;;;;;;;;;;;;8.25;77.06;99829.63;7362734;19;19922;-62
2022/02/06 09:49:41;;;;;;;;;;;;;;;8.28;76.97;99811.34;7359753;19;19915;-62
2022/02/06 09:52:07;;;;;;;;;;;;;;;8.31;76.64;99841.59;7362962;19;19929;-62
2022/02/06 09:54:33;;;;;;;;;;;;;;;8.30;76.61;99852.91;7351893;19;19955;-64
2022/02/06 09:57:00;;;;;;;;;;;;;;;8.28;76.13;99826.94;7355363;19;19915;-63
2022/02/06 09:59:27;;;;;;;;;;;;;;;8.25;76.41;99839.16;7358218;19;19949;-62
2022/02/06 10:01:56;;;;;;;;;;;;;;;8.20;76.12;99838.44;7362351;19;19919;-62
2022/02/06 10:04:23;;;;;;;;;;;;;;;8.15;76.38;99830.75;7350922;19;19918;-61
2022/02/06 10:06:57;;;;;;;;;;;;;;;8.12;76.64;99824.81;7351876;19;19923;-62
2022/02/06 10:09:27;;;;;;;;;;;;;;;8.10;76.47;99845.63;7362806;19;19915;-60
2022/02/06 10:11:56;;;;;;;;;;;;;;;8.11;76.83;99851.69;7344623;19;19918;-59
2022/02/06 10:14:21;;;;;;;;;;;;;;;8.15;76.94;99861.13;7360381;19;19931;-60
2022/02/06 10:16:49;;;;;;;;;;;;;;;8.18;77.43;99848.03;7356644;19;22287;-61
2022/02/06 10:19:15;;;;;;;;;;;;;;;8.21;77.38;99854.03;7357024;19;19930;-60
2022/02/06 10:21:42;;;;;;;;;;;;;;;8.23;77.29;99825.38;7349609;19;20079;-61
2022/02/06 10:24:16;;;;;;;;;;;;;;;8.26;77.24;99814.88;7359243;19;20009;-61
2022/02/06 10:31:55;;;;;;;;;;;;;;;8.44;77.61;99835.22;7361178;19;19915;-60
2022/02/06 10:34:25;;;;;;;;;;;;;;;8.57;77.80;99841.78;7362240;19;20322;-60
2022/02/06 10:37:07;;;;;;;;;;;;;;;8.76;78.08;99833.44;7375346;19;19919;-60
2022/02/06 10:39:33;;;;;;;;;;;;;;;8.96;77.93;99843.25;7360566;19;19919;-60
2022/02/06 10:42:02;;;;;;;;;;;;;;;9.07;77.20;99838.56;7362519;19;19911;-62
2022/02/06 10:44:30;;;;;;;;;;;;;;;9.17;76.89;99841.75;7159336;19;28711;-61
2022/02/06 10:46:58;;;;;;;;;;;;;;;9.31;77.14;99844.78;1170794;19;10002225;-60
2022/02/06 10:49:27;;;;;;;;;;;;;;;9.43;77.08;99828.78;7346427;19;19922;-62
2022/02/06 10:51:57;;;;;;;;;;;;;;;9.54;76.58;99842.31;7367194;19;19957;-63
2022/02/06 10:54:29;;;;;;;;;;;;;;;9.66;76.65;99835.84;7353003;19;19926;-63
2022/02/06 10:57:03;;;;;;;;;;;;;;;9.82;76.72;99849.22;7363903;19;20448;-60
2022/02/06 10:59:35;;;;;;;;;;;;;;;9.93;76.10;99859.31;7365027;19;19948;-60
2022/02/06 11:02:04;;;;;;;;;;;;;;;9.97;75.56;99859.16;7358001;19;19919;-60
2022/02/06 11:04:32;;;;;;;;;;;;;;;10.01;75.58;99868.59;7362877;19;20351;-60
2022/02/06 11:07:12;;;;;;;;;;;;;;;10.09;75.69;99870.94;7361830;19;19918;-60
2022/02/06 11:09:37;;;;;;;;;;;;;;;10.25;75.66;99879.97;7354511;19;19919;-61
2022/02/06 11:12:09;;;;;;;;;;;;;;;10.36;75.36;99875.22;7349264;19;19943;-61
2022/02/06 11:14:38;;;;;;;;;;;;;;;10.49;75.17;99883.50;7365356;19;19923;-62
2022/02/06 11:17:13;;;;;;;;;;;;;;;10.61;75.34;99896.09;7354445;19;19944;-61
2022/02/06 11:19:55;;;;;;;;;;;;;;;10.80;75.10;99892.84;7365493;19;19919;-61
2022/02/06 11:22:21;;;;;;;;;;;;;;;11.02;74.87;99885.91;7346098;19;20027;-60
2022/02/06 11:24:46;;;;;;;;;;;;;;;11.16;73.99;99880.16;7373991;19;19923;-61
2022/02/06 11:27:13;;;;;;;;;;;;;;;11.24;73.04;99895.53;7369462;19;19922;-62
2022/02/06 11:29:38;;;;;;;;;;;;;;;11.24;72.08;99874.63;7356470;19;19919;-62
2022/02/06 11:32:04;;;;;;;;;;;;;;;11.24;71.92;99882.47;7364241;19;19964;-63
2022/02/06 11:34:29;;;;;;;;;;;;;;;11.24;72.22;99875.47;7358895;19;19923;-62
2022/02/06 11:45:48;;;;;;;;;;;;;;;11.25;70.58;99905.91;7264250;19;2004227;-60
2022/02/06 11:48:16;;;;;;;;;;;;;;;11.29;71.18;99893.59;7343765;19;19918;-61
2022/02/06 11:50:49;;;;;;;;;;;;;;;11.41;71.81;99916.66;7365792;19;19926;-61
2022/02/06 11:53:38;;;;;;;;;;;;;;;11.53;70.78;99905.72;7367827;19;20451;-61
2022/02/06 11:56:30;;;;;;;;;;;;;;;11.53;70.14;99916.19;7365076;19;19998;-62
2022/02/06 11:59:09;;;;;;;;;;;;;;;11.46;70.38;99917.34;7267373;19;2005706;-61
2022/02/06 12:01:34;;;;;;;;;;;;;;;11.39;70.60;99905.41;7362075;19;19933;-63
2022/02/06 12:04:02;;;;;;;;;;;;;;;11.33;70.47;99908.25;7370449;19;19943;-61
2022/02/06 12:06:37;;;;;;;;;;;;;;;11.26;70.53;99917.25;7360237;19;19978;-61
2022/02/06 12:09:02;;;;;;;;;;;;;;;11.17;70.14;99921.91;7356323;19;19915;-62
2022/02/06 12:11:28;;;;;;;;;;;;;;;11.09;70.75;99913.50;7365379;19;19918;-60
2022/02/06 12:14:08;;;;;;;;;;;;;;;11.05;71.04;99919.75;7373811;19;19922;-62
2022/02/06 12:16:40;;;;;;;;;;;;;;;11.01;70.65;99936.44;7369115;19;19915;-61
2022/02/06 12:19:24;;;;;;;;;;;;;;;10.96;70.33;99948.84;7375994;19;19979;-62
2022/02/06 12:21:49;;;;;;;;;;;;;;;10.85;70.00;99944.00;7367122;19;19926;-62
2022/02/06 12:24:35;;;;;;;;;;;;;;;10.72;69.52;99924.44;7364181;19;19923;-62
2022/02/06 12:27:19;;;;;;;;;;;;;;;10.56;70.27;99945.00;7365705;19;20472;-61
2022/02/06 12:29:50;;;;;;;;;;;;;;;10.54;71.03;99940.75;7365015;19;19978;-61
2022/02/06 12:32:35;;;;;;;;;;;;;;;10.69;72.31;99931.53;7356332;19;20724;-61
2022/02/06 12:37:45;;;;;;;;;;;;;;;11.32;73.02;99940.53;7364515;19;19939;-60
2022/02/06 12:40:12;;;;;;;;;;;;;;;11.67;72.93;99953.09;7357421;19;19922;-61
2022/02/06 12:42:39;;;;;;;;;;;;;;;12.00;72.63;99960.53;7367768;19;20380;-63
2022/02/06 12:45:06;;;;;;;;;;;;;;;12.34;72.16;99943.47;7362260;19;22013;-62
2022/02/06 12:47:31;;;;;;;;;;;;;;;12.63;71.83;99937.84;7363380;19;20318;-61
2022/02/06 12:49:57;;;;;;;;;;;;;;;12.89;71.71;99951.56;7359762;19;19922;-63
2022/02/06 12:52:22;;;;;;;;;;;;;;;13.15;71.55;99969.59;7359627;19;21238;-60
2022/02/06 12:54:47;;;;;;;;;;;;;;;13.38;71.43;99972.97;7368458;19;19919;-60
2022/02/06 12:57:18;;;;;;;;;;;;;;;13.59;70.17;99969.38;7366834;19;19925;-60
2022/02/06 12:59:44;;;;;;;;;;;;;;;13.76;68.85;99966.78;7368583;19;19923;-60
2022/02/06 13:02:10;;;;;;;;;;;;;;;13.85;68.14;99964.66;7367142;19;19914;-62
2022/02/06 13:04:41;;;;;;;;;;;;;;;13.86;68.21;99972.44;7358825;19;19915;-62
2022/02/06 13:07:07;;;;;;;;;;;;;;;13.89;68.41;99976.69;7359257;19;20341;-61
2022/02/06 13:09:38;;;;;;;;;;;;;;;13.91;68.00;99990.59;7368871;19;19915;-61
2022/02/06 13:25:59;;;;;;;;;;;;;;;13.44;67.32;100018.13;2416241;19;10002019;-61
2022/02/06 13:28:35;;;;;;;;;;;;;;;13.55;67.81;100017.66;6550665;19;10000841;-61
2022/02/06 13:34:02;;;;;;;;;;;;;;;13.92;67.90;100029.91;7357021;19;19956;-63
2022/02/06 13:39:04;;;;;;;;;;;;;;;14.21;67.81;100046.03;7352925;19;19935;-63
2022/02/06 13:41:32;;;;;;;;;;;;;;;14.30;67.14;100048.25;7362424;19;19914;-62
2022/02/06 13:43:59;;;;;;;;;;;;;;;14.35;66.54;100046.25;7364432;19;19935;-61
2022/02/06 13:46:29;;;;;;;;;;;;;;;14.39;66.49;100031.16;7358070;19;19918;-61
2022/02/06 13:48:55;;;;;;;;;;;;;;;14.47;67.09;100031.66;7357229;19;19923;-61
2022/02/06 13:51:25;;;;;;;;;;;;;;;14.58;67.38;100028.50;7354701;19;19930;-61
2022/02/06 13:53:54;;;;;;;;;;;;;;;14.77;68.07;100035.41;7373903;19;20629;-61
2022/02/06 13:56:19;;;;;;;;;;;;;;;14.98;67.94;100037.84;7352685;19;19930;-62
2022/02/06 13:58:56;;;;;;;;;;;;;;;15.23;67.69;100043.53;7372717;19;20307;-60
2022/02/06 14:01:21;;;;;;;;;;;;;;;15.46;66.72;100058.13;7370320;19;19914;-61
2022/02/06 14:03:52;;;;;;;;;;;;;;;15.63;66.77;100067.78;7370663;19;19910;-62
2022/02/06 14:06:19;;;;;;;;;;;;;;;15.78;66.14;100038.00;7359787;19;19919;-63
2022/02/06 14:09:22;;;;;;;;;;;;;;;15.97;64.72;100066.81;7367372;19;19931;-63
2022/02/06 14:11:58;;;;;;;;;;;;;;;16.08;63.70;100050.41;7252705;19;2004491;-61
2022/02/06 14:14:24;;;;;;;;;;;;;;;16.08;63.69;100058.31;7366969;19;19915;-61
2022/02/06 14:16:54;;;;;;;;;;;;;;;16.07;62.83;100077.69;7361787;19;19914;-61
2022/02/06 14:19:43;;;;;;;;;;;;;;;16.00;62.91;100089.47;7356396;19;19926;-61
2022/02/06 14:22:09;;;;;;;;;;;;;;;15.84;60.71;100123.69;7365435;19;19922;-62
2022/02/06 14:24:47;;;;;;;;;;;;;;;15.51;59.37;100126.28;7361381;19;19927;-62
2022/02/06 14:27:12;;;;;;;;;;;;;;;14.97;58.35;100167.63;7360295;19;19922;-62
2022/02/06 14:29:37;;;;;;;;;;;;;;;14.36;58.11;100160.03;7367534;19;19918;-62
2022/02/06 14:32:14;;;;;;;;;;;;;;;13.71;58.56;100128.84;7355674;19;20002;-61
2022/02/06 14:34:40;;;;;;;;;;;;;;;13.10;59.41;100151.59;7358393;19;19915;-61
2022/02/06 14:37:07;;;;;;;;;;;;;;;12.63;61.12;100157.88;7365709;19;19942;-62
2022/02/06 14:39:36;;;;;;;;;;;;;;;12.28;61.87;100168.84;7362452;19;19918;-60
2022/02/06 14:42:17;;;;;;;;;;;;;;;12.00;62.44;100151.56;7369706;19;19919;-61
2022/02/06 14:44:43;;;;;;;;;;;;;;;11.81;63.75;100169.69;7357383;19;19923;-60
2022/02/06 14:47:08;;;;;;;;;;;;;;;11.73;64.01;100181.34;7364545;19;19926;-62
2022/02/06 14:49:33;;;;;;;;;;;;;;;11.65;64.18;100174.59;7362313;19;19923;-63
2022/02/06 14:51:59;;;;;;;;;;;;;;;11.60;63.94;100183.50;7371584;19;19939;-61
2022/02/06 14:54:31;;;;;;;;;;;;;;;11.52;64.06;100182.94;7356825;19;19915;-62
2022/02/06 14:56:56;;;;;;;;;;;;;;;11.41;63.62;100183.31;7363630;19;20364;-60
2022/02/06 14:59:22;;;;;;;;;;;;;;;11.30;64.06;100201.09;7365861;19;20357;-60
2022/02/06 15:01:50;;;;;;;;;;;;;;;11.22;64.47;100205.75;7359725;19;19930;-61
2022/02/06 15:04:15;;;;;;;;;;;;;;;11.16;64.81;100201.59;7356397;19;19919;-60
2022/02/06 15:06:41;;;;;;;;;;;;;;;11.20;66.25;100213.63;7351151;19;19945;-62
2022/02/06 15:09:07;;;;;;;;;;;;;;;11.35;67.06;100222.72;7366033;19;19952;-62
2022/02/06 15:11:33;;;;;;;;;;;;;;;11.56;67.43;100223.78;7359475;19;19927;-60
2022/02/06 15:13:58;;;;;;;;;;;;;;;11.78;67.83;100231.72;7356283;19;19922;-62
2022/02/06 15:16:27;;;;;;;;;;;;;;;12.01;67.80;100229.16;7372360;19;19949;-61
2022/02/06 15:19:13;;;;;;;;;;;;;;;12.26;67.38;100202.09;2416466;19;10001824;-62
2022/02/06 15:21:39;;;;;;;;;;;;;;;12.57;66.82;100243.66;6653782;19;10001174;-61
2022/02/06 15:24:05;;;;;;;;;;;;;;;12.75;66.58;100237.72;7373865;19;19921;-62
2022/02/06 15:26:30;;;;;;;;;;;;;;;12.92;66.10;100260.66;7373425;19;19919;-60
2022/02/06 15:28:56;;;;;;;;;;;;;;;13.06;65.74;100247.84;7363050;19;19923;-62
2022/02/06 15:31:21;;;;;;;;;;;;;;;13.20;64.94;100244.69;7375784;19;19937;-60
2022/02/06 15:33:46;;;;;;;;;;;;;;;13.27;64.21;100261.03;7365201;19;19926;-59
2022/02/06 15:36:12;;;;;;;;;;;;;;;13.24;63.68;100262.88;7378000;19;19942;-60
2022/02/06 15:38:38;;;;;;;;;;;;;;;13.22;63.57;100275.19;7369416;19;19939;-61
2022/02/06 15:41:03;;;;;;;;;;;;;;;13.19;62.96;100275.28;7375673;19;19935;-60
2022/02/06 15:43:29;;;;;;;;;;;;;;;13.13;62.42;100272.91;7374238;19;19931;-61
2022/02/06 15:45:55;;;;;;;;;;;;;;;13.05;62.76;100302.97;7378402;19;19978;-61